createdAt,value
2022-12-03T00:01:57.233Z,24.58
2022-12-03T00:04:27.753Z,24.58
2022-12-03T00:06:58.266Z,24.55
2022-12-03T00:09:28.820Z,24.54
2022-12-03T00:12:01.804Z,24.55
2022-12-03T00:14:32.466Z,24.52
2022-12-03T00:17:02.977Z,24.50
2022-12-03T00:19:33.846Z,24.50
2022-12-03T00:22:04.489Z,24.49
2022-12-03T00:24:34.981Z,24.47
2022-12-03T00:27:06.624Z,24.48
2022-12-03T00:29:36.711Z,24.46
2022-12-03T00:32:07.787Z,24.45
2022-12-03T00:34:38.143Z,24.44
2022-12-03T00:37:08.571Z,24.43
2022-12-03T00:39:39.298Z,24.42
2022-12-03T00:42:11.249Z,24.40
2022-12-03T00:44:41.232Z,24.39
2022-12-03T00:47:12.352Z,24.37
2022-12-03T00:49:42.821Z,24.38
2022-12-03T00:52:12.807Z,24.38
2022-12-03T00:54:43.532Z,24.37
2022-12-03T00:57:16.234Z,24.36
2022-12-03T00:59:46.906Z,24.34
2022-12-03T01:02:17.698Z,24.32
2022-12-03T01:04:48.685Z,24.30
2022-12-03T01:07:19.414Z,24.29
2022-12-03T01:09:49.965Z,24.27
2022-12-03T01:12:22.679Z,24.25
2022-12-03T01:14:53.609Z,24.22
2022-12-03T01:17:24.051Z,24.17
2022-12-03T01:19:54.859Z,24.13
2022-12-03T01:22:25.172Z,24.09
2022-12-03T01:24:55.519Z,24.06
2022-12-03T01:27:28.424Z,24.04
2022-12-03T01:29:58.493Z,24.04
2022-12-03T01:32:27.046Z,24.04
2022-12-03T01:34:58.878Z,24.03
2022-12-03T01:37:30.828Z,24.02
2022-12-03T01:40:00.937Z,24.02
2022-12-03T01:42:38.221Z,24.02
2022-12-03T01:45:14.902Z,24.02
2022-12-03T01:47:45.428Z,24.02
2022-12-03T01:50:26.118Z,24.03
2022-12-03T01:53:00.532Z,24.03
2022-12-03T01:55:31.733Z,24.04
2022-12-03T01:58:04.854Z,24.04
2022-12-03T02:00:35.677Z,24.03
2022-12-03T02:03:15.253Z,24.03
2022-12-03T02:05:46.119Z,24.01
2022-12-03T02:08:33.324Z,24.01
2022-12-03T02:11:11.635Z,24.00
2022-12-03T02:13:44.432Z,23.99
2022-12-03T02:16:14.461Z,23.97
2022-12-03T02:18:46.044Z,23.97
2022-12-03T02:21:29.602Z,23.98
2022-12-03T02:24:10.391Z,23.96
2022-12-03T02:26:42.937Z,23.95
2022-12-03T02:29:13.002Z,23.94
2022-12-03T02:31:44.358Z,23.94
2022-12-03T02:34:39.007Z,23.90
2022-12-03T02:37:14.472Z,23.90
2022-12-03T02:39:53.099Z,23.89
2022-12-03T02:42:36.010Z,23.87
2022-12-03T02:45:13.277Z,23.86
2022-12-03T02:47:48.168Z,23.85
2022-12-03T02:50:23.246Z,23.84
2022-12-03T02:52:57.175Z,23.82
2022-12-03T02:55:34.924Z,23.83
2022-12-03T02:58:09.374Z,23.82
2022-12-03T03:00:41.514Z,23.81
2022-12-03T03:03:13.061Z,23.83
2022-12-03T03:05:45.832Z,23.81
2022-12-03T03:08:16.975Z,23.81
2022-12-03T03:10:50.184Z,23.82
2022-12-03T03:13:24.382Z,23.81
2022-12-03T03:15:54.290Z,23.80
2022-12-03T03:18:25.216Z,23.80
2022-12-03T03:20:56.393Z,23.78
2022-12-03T03:23:28.499Z,23.78
2022-12-03T03:26:02.863Z,23.76
2022-12-03T03:28:37.213Z,23.76
2022-12-03T03:31:10.623Z,23.76
2022-12-03T03:33:43.865Z,23.76
2022-12-03T03:36:16.373Z,23.74
2022-12-03T03:38:46.966Z,23.73
2022-12-03T03:41:18.943Z,23.74
2022-12-03T03:43:52.522Z,23.72
2022-12-03T03:46:23.267Z,23.71
2022-12-03T03:48:55.122Z,23.70
2022-12-03T03:51:25.881Z,23.70
2022-12-03T03:53:56.422Z,23.67
2022-12-03T03:56:27.595Z,23.64
2022-12-03T03:59:00.492Z,23.61
2022-12-03T04:01:33.429Z,23.57
2022-12-03T04:04:04.285Z,23.56
2022-12-03T04:06:34.775Z,23.54
2022-12-03T04:09:05.293Z,23.53
2022-12-03T04:11:52.184Z,23.52
2022-12-03T04:14:25.003Z,23.50
2022-12-03T04:16:55.643Z,23.50
2022-12-03T04:19:25.769Z,23.51
2022-12-03T04:22:12.736Z,23.51
2022-12-03T04:24:43.454Z,23.51
2022-12-03T04:27:30.494Z,23.50
2022-12-03T04:30:02.178Z,23.49
2022-12-03T04:32:49.141Z,23.49
2022-12-03T04:35:35.996Z,23.49
2022-12-03T04:38:06.219Z,23.49
2022-12-03T04:40:53.164Z,23.50
2022-12-03T04:43:23.325Z,23.48
2022-12-03T04:45:55.237Z,23.48
2022-12-03T04:48:26.098Z,23.47
2022-12-03T04:50:56.678Z,23.45
2022-12-03T04:53:26.874Z,23.45
2022-12-03T04:55:57.025Z,23.44
2022-12-03T04:58:27.875Z,23.44
2022-12-03T05:01:00.504Z,23.45
2022-12-03T05:03:31.176Z,23.46
2022-12-03T05:06:01.548Z,23.49
2022-12-03T05:08:31.503Z,23.53
2022-12-03T05:11:02.302Z,23.56
2022-12-03T05:13:32.675Z,23.58
2022-12-03T05:16:05.520Z,23.62
2022-12-03T05:18:36.009Z,23.64
2022-12-03T05:21:07.445Z,23.66
2022-12-03T05:23:37.372Z,23.67
2022-12-03T05:26:07.808Z,23.70
2022-12-03T05:28:38.213Z,23.72
2022-12-03T05:31:10.529Z,23.72
2022-12-03T05:33:44.460Z,23.72
2022-12-03T05:36:15.379Z,23.73
2022-12-03T05:38:45.922Z,23.74
2022-12-03T05:41:32.944Z,23.76
2022-12-03T05:44:03.444Z,23.76
2022-12-03T05:46:35.693Z,23.79
2022-12-03T05:49:06.387Z,23.83
2022-12-03T05:51:36.918Z,23.86
2022-12-03T05:54:07.736Z,23.89
2022-12-03T05:56:37.840Z,23.93
2022-12-03T05:59:08.907Z,23.98
2022-12-03T06:01:40.994Z,23.99
2022-12-03T06:04:11.225Z,24.03
2022-12-03T06:06:41.790Z,24.06
2022-12-03T06:09:12.510Z,24.11
2022-12-03T06:11:42.587Z,24.17
2022-12-03T06:14:13.404Z,24.21
2022-12-03T06:16:45.931Z,24.32
2022-12-03T06:19:16.307Z,24.48
2022-12-03T06:21:48.153Z,24.64
2022-12-03T06:24:18.923Z,24.76
2022-12-03T06:26:49.797Z,24.92
2022-12-03T06:29:20.443Z,25.08
2022-12-03T06:31:53.026Z,25.22
2022-12-03T06:34:23.551Z,25.30
2022-12-03T06:36:53.199Z,25.31
2022-12-03T06:39:23.470Z,25.30
2022-12-03T06:41:54.165Z,25.28
2022-12-03T06:44:24.333Z,25.28
2022-12-03T06:46:57.017Z,25.35
2022-12-03T06:49:27.151Z,25.47
2022-12-03T06:51:57.848Z,25.67
2022-12-03T06:54:28.268Z,25.91
2022-12-03T06:56:58.913Z,26.17
2022-12-03T06:59:29.176Z,26.48
2022-12-03T07:02:01.642Z,26.81
2022-12-03T07:04:31.761Z,27.14
2022-12-03T07:07:02.097Z,27.44
2022-12-03T07:09:32.957Z,27.73
2022-12-03T07:12:03.764Z,28.02
2022-12-03T07:14:34.318Z,28.22
2022-12-03T07:17:06.386Z,28.31
2022-12-03T07:19:37.049Z,28.41
2022-12-03T07:22:07.796Z,28.54
2022-12-03T07:24:38.373Z,28.72
2022-12-03T07:27:08.747Z,28.90
2022-12-03T07:29:39.728Z,29.06
2022-12-03T07:32:11.856Z,29.22
2022-12-03T07:34:42.622Z,29.39
2022-12-03T07:37:13.117Z,29.56
2022-12-03T07:39:43.705Z,29.69
2022-12-03T07:42:14.187Z,29.80
2022-12-03T07:44:44.783Z,29.98
2022-12-03T07:47:17.460Z,30.20
2022-12-03T07:49:47.807Z,30.43
2022-12-03T07:52:18.476Z,30.65
2022-12-03T07:54:48.515Z,30.89
2022-12-03T07:57:19.114Z,31.14
2022-12-03T07:59:49.197Z,31.37
2022-12-03T08:02:22.120Z,31.59
2022-12-03T08:04:53.191Z,31.84
2022-12-03T08:07:24.211Z,32.11
2022-12-03T08:09:54.873Z,32.38
2022-12-03T08:12:40.496Z,32.58
2022-12-03T08:15:16.075Z,32.70
2022-12-03T08:17:52.835Z,32.87
2022-12-03T08:20:26.070Z,33.12
2022-12-03T08:22:58.651Z,33.42
2022-12-03T08:25:32.732Z,33.80
2022-12-03T08:28:13.814Z,34.24
2022-12-03T08:30:44.962Z,34.63
2022-12-03T08:33:28.533Z,35.10
2022-12-03T08:35:59.014Z,35.49
2022-12-03T08:38:31.814Z,35.68
2022-12-03T08:41:02.480Z,35.66
2022-12-03T08:43:43.207Z,35.54
2022-12-03T08:46:21.334Z,35.33
2022-12-03T08:48:54.342Z,35.09
2022-12-03T08:51:27.080Z,34.89
2022-12-03T08:54:07.344Z,34.68
2022-12-03T08:56:39.552Z,34.47
2022-12-03T08:59:27.978Z,34.25
2022-12-03T09:02:00.919Z,34.04
2022-12-03T09:04:41.012Z,33.84
2022-12-03T09:07:11.956Z,33.65
2022-12-03T09:09:41.971Z,33.46
2022-12-03T09:12:12.801Z,33.30
2022-12-03T09:14:43.504Z,33.13
2022-12-03T09:17:13.964Z,33.01
2022-12-03T09:19:46.793Z,32.89
2022-12-03T09:22:17.781Z,32.82
2022-12-03T09:24:48.493Z,32.81
2022-12-03T09:27:19.341Z,32.84
2022-12-03T09:29:49.448Z,32.82
2022-12-03T09:32:19.709Z,32.77
2022-12-03T09:35:08.817Z,32.71
2022-12-03T09:37:39.384Z,32.65
2022-12-03T09:40:12.103Z,32.58
2022-12-03T09:42:42.912Z,32.49
2022-12-03T09:45:16.871Z,32.41
2022-12-03T09:47:51.873Z,32.32
2022-12-03T09:50:27.294Z,32.19
2022-12-03T09:53:01.506Z,32.07
2022-12-03T09:55:32.925Z,31.95
2022-12-03T09:58:05.986Z,31.85
2022-12-03T10:00:37.172Z,31.73
2022-12-03T10:03:10.463Z,31.60
2022-12-03T10:05:47.880Z,31.49
2022-12-03T10:08:22.939Z,31.35
2022-12-03T10:10:58.916Z,31.18
2022-12-03T10:13:32.619Z,31.03
2022-12-03T10:16:04.352Z,30.87
2022-12-03T10:18:41.546Z,30.70
2022-12-03T10:21:22.497Z,30.58
2022-12-03T10:23:55.422Z,30.48
2022-12-03T10:26:42.477Z,30.39
2022-12-03T10:29:17.388Z,30.29
2022-12-03T10:31:48.509Z,30.21
2022-12-03T10:34:30.937Z,30.15
2022-12-03T10:37:18.744Z,30.03
2022-12-03T10:40:02.212Z,29.95
2022-12-03T10:42:35.500Z,29.90
2022-12-03T10:45:26.725Z,29.86
2022-12-03T10:48:13.542Z,29.83
2022-12-03T10:50:53.551Z,29.80
2022-12-03T10:53:31.888Z,29.75
2022-12-03T10:56:06.313Z,29.69
2022-12-03T10:58:40.307Z,29.65
2022-12-03T11:01:20.732Z,29.61
2022-12-03T11:03:52.057Z,29.52
2022-12-03T11:06:24.884Z,29.46
2022-12-03T11:09:00.440Z,29.41
2022-12-03T11:11:35.065Z,29.38
2022-12-03T11:14:08.609Z,29.36
2022-12-03T11:17:12.015Z,29.32
2022-12-03T11:19:50.514Z,29.27
2022-12-03T11:22:43.585Z,29.20
2022-12-03T11:25:52.738Z,29.09
2022-12-03T11:28:56.333Z,29.02
2022-12-03T11:31:43.192Z,28.98
2022-12-03T11:34:50.501Z,28.92
2022-12-03T11:37:30.083Z,28.87
2022-12-03T11:40:39.667Z,28.84
2022-12-03T11:43:13.793Z,28.81
2022-12-03T11:45:43.911Z,28.80
2022-12-03T11:48:16.936Z,28.77
2022-12-03T11:50:53.705Z,28.77
2022-12-03T11:53:27.748Z,28.77
2022-12-03T11:56:09.372Z,28.79
2022-12-03T11:58:45.710Z,28.79
2022-12-03T12:01:19.391Z,28.77
2022-12-03T12:03:52.082Z,28.76
2022-12-03T12:06:23.617Z,28.73
2022-12-03T12:09:04.292Z,28.72
2022-12-03T12:11:37.880Z,28.68
2022-12-03T12:14:12.896Z,28.66
2022-12-03T12:16:55.472Z,28.63
2022-12-03T12:19:40.251Z,28.60
2022-12-03T12:22:33.050Z,28.57
2022-12-03T12:25:05.583Z,28.53
2022-12-03T12:27:45.642Z,28.52
2022-12-03T12:30:22.327Z,28.48
2022-12-03T12:32:56.463Z,28.46
2022-12-03T12:35:28.556Z,28.44
2022-12-03T12:38:04.767Z,28.43
2022-12-03T12:40:39.356Z,28.41
2022-12-03T12:43:24.521Z,28.39
2022-12-03T12:45:59.443Z,28.36
2022-12-03T12:48:36.416Z,28.35
2022-12-03T12:51:15.410Z,28.35
2022-12-03T12:53:45.355Z,28.31
2022-12-03T12:56:25.943Z,28.29
2022-12-03T12:58:57.243Z,28.26
2022-12-03T13:01:33.557Z,28.26
2022-12-03T13:04:03.938Z,28.22
2022-12-03T13:06:36.598Z,28.19
2022-12-03T13:09:11.694Z,28.14
2022-12-03T13:11:46.186Z,28.14
2022-12-03T13:14:22.881Z,28.11
2022-12-03T13:16:59.438Z,28.10
2022-12-03T13:19:32.703Z,28.06
2022-12-03T13:22:13.216Z,28.03
2022-12-03T13:24:48.138Z,27.98
2022-12-03T13:27:29.920Z,27.95
2022-12-03T13:30:04.347Z,27.92
2022-12-03T13:32:39.949Z,27.91
2022-12-03T13:35:36.183Z,27.89
2022-12-03T13:38:15.992Z,27.85
2022-12-03T13:40:46.019Z,27.85
2022-12-03T13:43:22.014Z,27.84
2022-12-03T13:45:55.634Z,27.83
2022-12-03T13:48:33.172Z,27.83
2022-12-03T13:51:21.521Z,27.82
2022-12-03T13:53:52.054Z,27.78
2022-12-03T13:56:30.092Z,27.79
2022-12-03T13:59:02.987Z,27.76
2022-12-03T14:01:33.248Z,27.76
2022-12-03T14:04:06.537Z,27.77
2022-12-03T14:06:36.645Z,27.79
2022-12-03T14:09:07.348Z,27.79
2022-12-03T14:11:54.314Z,27.81
2022-12-03T14:14:24.926Z,27.81
2022-12-03T14:16:59.912Z,27.83
2022-12-03T14:19:33.154Z,27.83
2022-12-03T14:22:03.208Z,27.83
2022-12-03T14:24:33.720Z,27.83
2022-12-03T14:27:04.066Z,27.83
2022-12-03T14:29:34.505Z,27.82
2022-12-03T14:32:05.217Z,27.81
2022-12-03T14:34:37.487Z,27.78
2022-12-03T14:37:08.017Z,27.73
2022-12-03T14:39:38.580Z,27.66
2022-12-03T14:42:17.068Z,27.61
2022-12-03T14:44:50.583Z,27.55
2022-12-03T14:47:24.270Z,27.54
2022-12-03T14:49:56.347Z,27.54
2022-12-03T14:52:27.060Z,27.55
2022-12-03T14:54:57.883Z,27.55
2022-12-03T14:57:28.678Z,27.55
2022-12-03T14:59:59.039Z,27.51
2022-12-03T15:02:30.851Z,27.49
2022-12-03T15:05:03.209Z,27.44
2022-12-03T15:07:33.215Z,27.36
2022-12-03T15:10:03.800Z,27.33
2022-12-03T15:12:34.348Z,27.31
2022-12-03T15:15:04.556Z,27.29
2022-12-03T15:17:34.717Z,27.26
2022-12-03T15:20:07.394Z,27.25
2022-12-03T15:22:37.456Z,27.25
2022-12-03T15:25:08.944Z,27.24
2022-12-03T15:27:39.340Z,27.24
2022-12-03T15:30:11.144Z,27.21
2022-12-03T15:32:41.341Z,27.19
2022-12-03T15:35:20.125Z,27.17
2022-12-03T15:37:50.302Z,27.14
2022-12-03T15:40:21.149Z,27.15
2022-12-03T15:42:51.281Z,27.14
2022-12-03T15:45:22.203Z,27.13
2022-12-03T15:47:52.560Z,27.13
2022-12-03T15:50:24.590Z,27.12
2022-12-03T15:52:54.435Z,27.12
2022-12-03T15:55:25.403Z,27.10
2022-12-03T15:57:56.148Z,27.10
2022-12-03T16:00:26.583Z,27.09
2022-12-03T16:02:56.766Z,27.08
2022-12-03T16:05:28.789Z,27.08
2022-12-03T16:07:59.107Z,27.06
2022-12-03T16:10:29.582Z,27.05
2022-12-03T16:12:59.431Z,27.04
2022-12-03T16:15:29.667Z,27.04
2022-12-03T16:17:59.210Z,27.04
2022-12-03T16:20:31.960Z,27.03
2022-12-03T16:23:02.169Z,27.02
2022-12-03T16:25:31.659Z,27.01
2022-12-03T16:28:02.177Z,26.99
2022-12-03T16:30:32.686Z,27.00
2022-12-03T16:33:03.478Z,26.99
2022-12-03T16:35:35.987Z,26.98
2022-12-03T16:38:09.230Z,26.96
2022-12-03T16:40:39.671Z,26.94
2022-12-03T16:43:11.060Z,26.94
2022-12-03T16:46:02.917Z,26.94
2022-12-03T16:48:33.543Z,26.91
2022-12-03T16:51:06.176Z,26.91
2022-12-03T16:53:36.862Z,26.91
2022-12-03T16:56:07.574Z,26.90
2022-12-03T16:58:38.382Z,26.88
2022-12-03T17:01:09.511Z,26.87
2022-12-03T17:03:40.444Z,26.87
2022-12-03T17:06:12.400Z,26.85
2022-12-03T17:08:48.792Z,26.84
2022-12-03T17:11:20.374Z,26.83
2022-12-03T17:13:50.836Z,26.83
2022-12-03T17:16:21.323Z,26.82
2022-12-03T17:18:51.283Z,26.80
2022-12-03T17:21:23.759Z,26.79
2022-12-03T17:23:54.411Z,26.77
2022-12-03T17:26:24.781Z,26.77
2022-12-03T17:28:55.448Z,26.76
2022-12-03T17:31:25.791Z,26.75
2022-12-03T17:33:57.836Z,26.74
2022-12-03T17:36:29.839Z,26.74
2022-12-03T17:38:59.761Z,26.72
2022-12-03T17:41:29.736Z,26.70
2022-12-03T17:43:59.942Z,26.70
2022-12-03T17:46:29.915Z,26.67
2022-12-03T17:49:00.381Z,26.66
2022-12-03T17:51:32.811Z,26.65
2022-12-03T17:54:03.008Z,26.65
2022-12-03T17:56:33.326Z,26.63
2022-12-03T17:59:04.120Z,26.60
2022-12-03T18:01:34.599Z,26.59
2022-12-03T18:04:06.269Z,26.58
2022-12-03T18:06:38.760Z,26.56
2022-12-03T18:09:09.337Z,26.55
2022-12-03T18:11:39.668Z,26.53
2022-12-03T18:14:10.128Z,26.52
2022-12-03T18:16:40.424Z,26.51
2022-12-03T18:19:11.239Z,26.48
2022-12-03T18:21:43.409Z,26.47
2022-12-03T18:24:13.519Z,26.45
2022-12-03T18:26:44.477Z,26.42
2022-12-03T18:29:14.939Z,26.41
2022-12-03T18:31:45.494Z,26.39
2022-12-03T18:34:15.754Z,26.38
2022-12-03T18:36:48.935Z,26.37
2022-12-03T18:39:29.794Z,26.34
2022-12-03T18:42:00.823Z,26.32
2022-12-03T18:44:30.778Z,26.31
2022-12-03T18:47:02.964Z,26.29
2022-12-03T18:49:33.137Z,26.29
2022-12-03T18:52:05.705Z,26.28
2022-12-03T18:54:35.641Z,26.27
2022-12-03T18:57:05.859Z,26.26
2022-12-03T18:59:36.347Z,26.24
2022-12-03T19:02:07.280Z,26.23
2022-12-03T19:04:36.987Z,26.21
2022-12-03T19:07:09.027Z,26.20
2022-12-03T19:09:39.486Z,26.17
2022-12-03T19:12:14.782Z,26.17
2022-12-03T19:14:45.510Z,26.15
2022-12-03T19:17:15.391Z,26.13
2022-12-03T19:19:45.484Z,26.11
2022-12-03T19:22:18.335Z,26.11
2022-12-03T19:24:48.855Z,26.08
2022-12-03T19:27:19.630Z,26.08
2022-12-03T19:29:52.247Z,26.07
2022-12-03T19:32:22.956Z,26.05
2022-12-03T19:34:53.692Z,26.04
2022-12-03T19:37:25.528Z,26.04
2022-12-03T19:39:56.575Z,26.02
2022-12-03T19:42:27.360Z,26.02
2022-12-03T19:44:57.881Z,26.01
2022-12-03T19:47:28.255Z,25.99
2022-12-03T19:49:58.719Z,25.98
2022-12-03T19:52:31.125Z,25.98
2022-12-03T19:55:02.492Z,25.96
2022-12-03T19:57:32.930Z,25.96
2022-12-03T20:00:02.812Z,25.95
2022-12-03T20:02:32.792Z,25.94
2022-12-03T20:05:03.455Z,25.92
2022-12-03T20:07:35.393Z,25.91
2022-12-03T20:10:06.313Z,25.90
2022-12-03T20:12:37.115Z,25.87
2022-12-03T20:15:08.901Z,25.86
2022-12-03T20:17:39.440Z,25.86
2022-12-03T20:20:11.653Z,25.85
2022-12-03T20:22:44.163Z,25.83
2022-12-03T20:25:14.402Z,25.82
2022-12-03T20:27:44.921Z,25.81
2022-12-03T20:30:16.092Z,25.80
2022-12-03T20:32:46.896Z,25.77
2022-12-03T20:35:17.392Z,25.77
2022-12-03T20:37:49.111Z,25.76
2022-12-03T20:40:19.055Z,25.76
2022-12-03T20:42:50.764Z,25.75
2022-12-03T20:45:21.250Z,25.74
2022-12-03T20:47:51.250Z,25.73
2022-12-03T20:50:21.926Z,25.71
2022-12-03T20:53:22.544Z,25.71
2022-12-03T20:55:43.813Z,25.68
2022-12-03T20:58:14.265Z,25.67
2022-12-03T21:00:44.787Z,25.66
2022-12-03T21:03:15.233Z,25.65
2022-12-03T21:05:46.327Z,25.63
2022-12-03T21:08:33.991Z,25.63
2022-12-03T21:11:11.437Z,25.61
2022-12-03T21:13:44.161Z,25.61
2022-12-03T21:16:17.236Z,25.60
2022-12-03T21:18:48.293Z,25.59
2022-12-03T21:21:21.857Z,25.59
2022-12-03T21:23:54.582Z,25.58
2022-12-03T21:26:25.718Z,25.56
2022-12-03T21:28:57.378Z,25.57
2022-12-03T21:31:31.849Z,25.57
2022-12-03T21:34:03.394Z,25.58
2022-12-03T21:36:34.446Z,25.58
2022-12-03T21:39:08.459Z,25.58
2022-12-03T21:41:38.465Z,25.58
2022-12-03T21:44:08.493Z,25.57
2022-12-03T21:47:10.360Z,25.57
2022-12-03T21:49:28.979Z,25.56
2022-12-03T21:51:58.933Z,25.57
2022-12-03T21:54:31.347Z,25.55
2022-12-03T21:57:01.811Z,25.55
2022-12-03T21:59:32.208Z,25.55
2022-12-03T22:02:02.894Z,25.55
2022-12-03T22:04:33.117Z,25.56
2022-12-03T22:07:03.683Z,25.55
2022-12-03T22:09:36.560Z,25.56
2022-12-03T22:12:08.551Z,25.55
2022-12-03T22:14:39.072Z,25.54
2022-12-03T22:17:09.208Z,25.54
2022-12-03T22:19:40.145Z,25.54
2022-12-03T22:22:10.535Z,25.54
2022-12-03T22:24:43.316Z,25.53
2022-12-03T22:27:13.483Z,25.52
2022-12-03T22:29:43.473Z,25.51
2022-12-03T22:32:14.033Z,25.52
2022-12-03T22:34:45.579Z,25.50
2022-12-03T22:37:15.795Z,25.51
2022-12-03T22:39:47.842Z,25.49
2022-12-03T22:42:18.454Z,25.48
2022-12-03T22:44:48.594Z,25.48
2022-12-03T22:47:19.223Z,25.47
2022-12-03T22:49:49.682Z,25.45
2022-12-03T22:52:19.657Z,25.45
2022-12-03T22:54:52.074Z,25.45
2022-12-03T22:57:22.731Z,25.43
2022-12-03T22:59:53.395Z,25.42
2022-12-03T23:02:24.358Z,25.42
2022-12-03T23:04:58.111Z,25.41
2022-12-03T23:07:28.469Z,25.40
2022-12-03T23:10:00.889Z,25.39
2022-12-03T23:12:31.322Z,25.37
2022-12-03T23:15:01.786Z,25.35
2022-12-03T23:17:32.413Z,25.33
2022-12-03T23:20:04.003Z,25.32
2022-12-03T23:22:34.485Z,25.31
2022-12-03T23:25:08.183Z,25.30
2022-12-03T23:27:38.638Z,25.27
2022-12-03T23:30:11.433Z,25.26
2022-12-03T23:32:42.387Z,25.26
2022-12-03T23:35:14.759Z,25.25
2022-12-03T23:37:46.830Z,25.24
2022-12-03T23:40:20.359Z,25.22
2022-12-03T23:42:50.797Z,25.22
2022-12-03T23:45:21.356Z,25.19
2022-12-03T23:47:57.887Z,25.17
2022-12-03T23:50:28.982Z,25.15
2022-12-03T23:52:58.995Z,25.14
2022-12-03T23:55:31.556Z,25.13
2022-12-03T23:58:02.206Z,25.12
